sensor_id;sensor_type;location;lat;lon;timestamp;pressure;altitude;pressure_sealevel;temperature;humidity
72975;BME280;61166;54.228;37.632;2023-03-31T00:01:37;98509.41;;;0.73;nan
72975;BME280;61166;54.228;37.632;2023-03-31T00:04:03;98494.53;;;0.67;nan
72975;BME280;61166;54.228;37.632;2023-03-31T00:06:34;98488.03;;;0.79;nan
72975;BME280;61166;54.228;37.632;2023-03-31T00:09:01;98482.38;;;0.76;nan
72975;BME280;61166;54.228;37.632;2023-03-31T00:11:27;98483.38;;;0.66;nan
72975;BME280;61166;54.228;37.632;2023-03-31T00:13:54;98492.91;;;0.66;nan
72975;BME280;61166;54.228;37.632;2023-03-31T00:16:21;98495.50;;;0.74;nan
72975;BME280;61166;54.228;37.632;2023-03-31T00:18:47;98488.38;;;0.68;nan
72975;BME280;61166;54.228;37.632;2023-03-31T00:21:17;98487.41;;;0.69;nan
72975;BME280;61166;54.228;37.632;2023-03-31T00:23:43;98475.13;;;0.71;nan
72975;BME280;61166;54.228;37.632;2023-03-31T00:26:10;98475.28;;;0.61;nan
72975;BME280;61166;54.228;37.632;2023-03-31T00:28:36;98475.63;;;0.58;nan
72975;BME280;61166;54.228;37.632;2023-03-31T00:31:03;98467.41;;;0.55;nan
72975;BME280;61166;54.228;37.632;2023-03-31T00:33:30;98469.00;;;0.64;nan
72975;BME280;61166;54.228;37.632;2023-03-31T00:35:56;98467.53;;;0.70;nan
72975;BME280;61166;54.228;37.632;2023-03-31T00:38:23;98457.34;;;0.60;nan
72975;BME280;61166;54.228;37.632;2023-03-31T00:40:49;98447.78;;;0.69;nan
72975;BME280;61166;54.228;37.632;2023-03-31T00:43:36;98437.75;;;0.74;nan
72975;BME280;61166;54.228;37.632;2023-03-31T00:48:37;98453.59;;;0.71;nan
72975;BME280;61166;54.228;37.632;2023-03-31T00:51:05;98453.09;;;0.75;nan
72975;BME280;61166;54.228;37.632;2023-03-31T00:53:33;98450.19;;;0.78;nan
72975;BME280;61166;54.228;37.632;2023-03-31T00:56:10;98446.34;;;0.66;nan
72975;BME280;61166;54.228;37.632;2023-03-31T00:58:38;98441.16;;;0.66;nan
72975;BME280;61166;54.228;37.632;2023-03-31T01:01:06;98440.84;;;0.61;nan
72975;BME280;61166;54.228;37.632;2023-03-31T01:03:33;98436.31;;;0.63;nan
72975;BME280;61166;54.228;37.632;2023-03-31T01:06:02;98441.81;;;0.60;nan
72975;BME280;61166;54.228;37.632;2023-03-31T01:08:31;98452.88;;;0.54;nan
72975;BME280;61166;54.228;37.632;2023-03-31T01:11:03;98453.84;;;0.53;nan
72975;BME280;61166;54.228;37.632;2023-03-31T01:13:30;98450.22;;;0.62;nan
72975;BME280;61166;54.228;37.632;2023-03-31T01:15:57;98441.56;;;0.47;nan
72975;BME280;61166;54.228;37.632;2023-03-31T01:18:24;98436.22;;;0.56;nan
72975;BME280;61166;54.228;37.632;2023-03-31T01:29:40;98449.97;;;0.49;nan
72975;BME280;61166;54.228;37.632;2023-03-31T01:46:00;98398.88;;;0.51;nan
72975;BME280;61166;54.228;37.632;2023-03-31T01:51:15;98402.25;;;0.51;nan
72975;BME280;61166;54.228;37.632;2023-03-31T01:54:08;98393.69;;;0.51;nan
72975;BME280;61166;54.228;37.632;2023-03-31T01:56:42;98403.09;;;0.44;nan
72975;BME280;61166;54.228;37.632;2023-03-31T01:59:33;98407.63;;;0.42;nan
72975;BME280;61166;54.228;37.632;2023-03-31T02:02:16;98404.72;;;0.37;nan
72975;BME280;61166;54.228;37.632;2023-03-31T02:04:49;98393.25;;;0.39;nan
72975;BME280;61166;54.228;37.632;2023-03-31T02:07:27;98397.59;;;0.47;nan
72975;BME280;61166;54.228;37.632;2023-03-31T02:10:00;98389.63;;;0.56;nan
72975;BME280;61166;54.228;37.632;2023-03-31T02:12:31;98386.75;;;0.51;nan
72975;BME280;61166;54.228;37.632;2023-03-31T02:15:02;98389.19;;;0.45;nan
72975;BME280;61166;54.228;37.632;2023-03-31T02:17:30;98394.34;;;0.45;nan
72975;BME280;61166;54.228;37.632;2023-03-31T02:20:02;98387.88;;;0.49;nan
72975;BME280;61166;54.228;37.632;2023-03-31T02:22:30;98387.72;;;0.42;nan
72975;BME280;61166;54.228;37.632;2023-03-31T02:25:00;98398.25;;;0.41;nan
72975;BME280;61166;54.228;37.632;2023-03-31T02:27:30;98403.72;;;0.46;nan
72975;BME280;61166;54.228;37.632;2023-03-31T02:29:58;98400.22;;;0.30;nan
72975;BME280;61166;54.228;37.632;2023-03-31T02:32:33;98377.91;;;0.29;nan
72975;BME280;61166;54.228;37.632;2023-03-31T02:35:02;98395.03;;;0.30;nan
72975;BME280;61166;54.228;37.632;2023-03-31T02:37:29;98382.75;;;0.32;nan
72975;BME280;61166;54.228;37.632;2023-03-31T02:39:58;98369.50;;;0.27;nan
72975;BME280;61166;54.228;37.632;2023-03-31T02:42:26;98376.59;;;0.33;nan
72975;BME280;61166;54.228;37.632;2023-03-31T02:44:52;98367.88;;;0.35;nan
72975;BME280;61166;54.228;37.632;2023-03-31T02:47:20;98373.22;;;0.33;nan
72975;BME280;61166;54.228;37.632;2023-03-31T02:49:50;98366.75;;;0.29;nan
72975;BME280;61166;54.228;37.632;2023-03-31T02:55:33;98349.16;;;0.24;nan
72975;BME280;61166;54.228;37.632;2023-03-31T02:58:25;98340.22;;;0.35;nan
72975;BME280;61166;54.228;37.632;2023-03-31T03:01:20;98346.03;;;0.37;nan
72975;BME280;61166;54.228;37.632;2023-03-31T03:15:27;98327.47;;;0.33;nan
72975;BME280;61166;54.228;37.632;2023-03-31T03:17:46;98326.81;;;0.31;nan
72975;BME280;61166;54.228;37.632;2023-03-31T03:20:14;98324.25;;;0.31;nan
72975;BME280;61166;54.228;37.632;2023-03-31T03:22:41;98330.69;;;0.36;nan
72975;BME280;61166;54.228;37.632;2023-03-31T03:25:10;98319.69;;;0.42;nan
72975;BME280;61166;54.228;37.632;2023-03-31T03:27:38;98326.97;;;0.38;nan
72975;BME280;61166;54.228;37.632;2023-03-31T03:30:07;98333.88;;;0.46;nan
72975;BME280;61166;54.228;37.632;2023-03-31T03:32:34;98336.44;;;0.54;nan
72975;BME280;61166;54.228;37.632;2023-03-31T03:35:02;98324.75;;;0.58;nan
72975;BME280;61166;54.228;37.632;2023-03-31T03:37:30;98318.44;;;0.60;nan
72975;BME280;61166;54.228;37.632;2023-03-31T03:39:56;98323.28;;;0.63;nan
72975;BME280;61166;54.228;37.632;2023-03-31T03:42:23;98315.13;;;0.52;nan
72975;BME280;61166;54.228;37.632;2023-03-31T03:44:50;98309.00;;;0.45;nan
72975;BME280;61166;54.228;37.632;2023-03-31T03:47:16;98318.66;;;0.51;nan
72975;BME280;61166;54.228;37.632;2023-03-31T03:49:43;98320.59;;;0.57;nan
72975;BME280;61166;54.228;37.632;2023-03-31T03:52:10;98315.13;;;0.52;nan
72975;BME280;61166;54.228;37.632;2023-03-31T03:54:36;98320.22;;;0.60;nan
72975;BME280;61166;54.228;37.632;2023-03-31T03:57:03;98317.94;;;0.65;nan
72975;BME280;61166;54.228;37.632;2023-03-31T03:59:29;98322.44;;;0.71;nan
72975;BME280;61166;54.228;37.632;2023-03-31T04:01:56;98316.28;;;0.72;nan
72975;BME280;61166;54.228;37.632;2023-03-31T04:04:22;98326.13;;;0.77;nan
72975;BME280;61166;54.228;37.632;2023-03-31T04:06:49;98329.53;;;0.77;nan
72975;BME280;61166;54.228;37.632;2023-03-31T04:09:16;98319.50;;;0.74;nan
72975;BME280;61166;54.228;37.632;2023-03-31T04:11:42;98306.22;;;0.77;nan
72975;BME280;61166;54.228;37.632;2023-03-31T04:14:09;98302.97;;;0.83;nan
72975;BME280;61166;54.228;37.632;2023-03-31T04:16:35;98315.22;;;0.89;nan
72975;BME280;61166;54.228;37.632;2023-03-31T04:19:02;98311.28;;;0.71;nan
72975;BME280;61166;54.228;37.632;2023-03-31T04:21:29;98312.09;;;0.71;nan
72975;BME280;61166;54.228;37.632;2023-03-31T04:23:56;98308.19;;;0.75;nan
72975;BME280;61166;54.228;37.632;2023-03-31T04:26:25;98307.50;;;0.81;nan
72975;BME280;61166;54.228;37.632;2023-03-31T04:28:52;98316.25;;;0.80;nan
72975;BME280;61166;54.228;37.632;2023-03-31T04:31:19;98309.63;;;0.78;nan
72975;BME280;61166;54.228;37.632;2023-03-31T04:33:45;98306.34;;;0.84;nan
72975;BME280;61166;54.228;37.632;2023-03-31T04:36:12;98308.09;;;0.91;nan
72975;BME280;61166;54.228;37.632;2023-03-31T04:38:38;98297.09;;;0.89;nan
72975;BME280;61166;54.228;37.632;2023-03-31T04:41:05;98298.38;;;0.93;nan
72975;BME280;61166;54.228;37.632;2023-03-31T04:43:31;98305.16;;;0.94;nan
72975;BME280;61166;54.228;37.632;2023-03-31T04:45:58;98289.59;;;1.03;nan
72975;BME280;61166;54.228;37.632;2023-03-31T04:48:24;98294.41;;;1.06;nan
72975;BME280;61166;54.228;37.632;2023-03-31T04:50:51;98289.13;;;0.99;nan
72975;BME280;61166;54.228;37.632;2023-03-31T04:53:17;98276.28;;;1.06;nan
72975;BME280;61166;54.228;37.632;2023-03-31T04:55:44;98272.13;;;1.19;nan
72975;BME280;61166;54.228;37.632;2023-03-31T04:58:10;98260.59;;;1.22;nan
72975;BME280;61166;54.228;37.632;2023-03-31T05:00:37;98263.81;;;1.24;nan
72975;BME280;61166;54.228;37.632;2023-03-31T05:03:03;98267.75;;;1.20;nan
72975;BME280;61166;54.228;37.632;2023-03-31T05:05:31;98277.41;;;1.26;nan
72975;BME280;61166;54.228;37.632;2023-03-31T05:07:57;98274.63;;;1.13;nan
72975;BME280;61166;54.228;37.632;2023-03-31T05:10:24;98278.38;;;1.25;nan
72975;BME280;61166;54.228;37.632;2023-03-31T05:12:50;98279.72;;;1.21;nan
72975;BME280;61166;54.228;37.632;2023-03-31T05:15:17;98270.28;;;1.28;nan
72975;BME280;61166;54.228;37.632;2023-03-31T05:17:44;98266.06;;;1.27;nan
72975;BME280;61166;54.228;37.632;2023-03-31T05:20:11;98260.94;;;1.19;nan
72975;BME280;61166;54.228;37.632;2023-03-31T05:22:39;98259.28;;;1.26;nan
72975;BME280;61166;54.228;37.632;2023-03-31T05:25:09;98263.81;;;1.24;nan
72975;BME280;61166;54.228;37.632;2023-03-31T05:27:35;98243.47;;;1.21;nan
72975;BME280;61166;54.228;37.632;2023-03-31T05:30:03;98247.41;;;1.31;nan
72975;BME280;61166;54.228;37.632;2023-03-31T05:32:30;98240.97;;;1.27;nan
72975;BME280;61166;54.228;37.632;2023-03-31T05:34:56;98229.47;;;1.30;nan
72975;BME280;61166;54.228;37.632;2023-03-31T05:37:23;98235.72;;;1.36;nan
72975;BME280;61166;54.228;37.632;2023-03-31T05:39:50;98222.13;;;1.33;nan
72975;BME280;61166;54.228;37.632;2023-03-31T05:42:17;98229.31;;;1.46;nan
72975;BME280;61166;54.228;37.632;2023-03-31T05:44:44;98249.41;;;1.44;nan
72975;BME280;61166;54.228;37.632;2023-03-31T05:47:11;98248.84;;;1.34;nan
72975;BME280;61166;54.228;37.632;2023-03-31T05:49:38;98239.19;;;1.28;nan
72975;BME280;61166;54.228;37.632;2023-03-31T05:52:05;98233.72;;;1.23;nan
72975;BME280;61166;54.228;37.632;2023-03-31T05:54:32;98226.66;;;1.17;nan
72975;BME280;61166;54.228;37.632;2023-03-31T05:56:58;98217.22;;;1.24;nan
72975;BME280;61166;54.228;37.632;2023-03-31T05:59:25;98222.75;;;1.21;nan
72975;BME280;61166;54.228;37.632;2023-03-31T06:01:52;98242.19;;;1.17;nan
72975;BME280;61166;54.228;37.632;2023-03-31T06:04:18;98224.44;;;1.14;nan
72975;BME280;61166;54.228;37.632;2023-03-31T06:06:45;98231.59;;;1.26;nan
72975;BME280;61166;54.228;37.632;2023-03-31T06:09:11;98228.72;;;1.21;nan
72975;BME280;61166;54.228;37.632;2023-03-31T06:11:38;98228.53;;;1.23;nan
72975;BME280;61166;54.228;37.632;2023-03-31T06:14:04;98230.69;;;1.19;nan
72975;BME280;61166;54.228;37.632;2023-03-31T06:16:31;98223.63;;;1.13;nan
72975;BME280;61166;54.228;37.632;2023-03-31T06:18:58;98212.88;;;1.02;nan
72975;BME280;61166;54.228;37.632;2023-03-31T06:21:25;98223.31;;;0.93;nan
72975;BME280;61166;54.228;37.632;2023-03-31T06:23:51;98229.91;;;0.96;nan
72975;BME280;61166;54.228;37.632;2023-03-31T06:26:18;98228.47;;;0.93;nan
72975;BME280;61166;54.228;37.632;2023-03-31T06:28:45;98233.38;;;0.88;nan
72975;BME280;61166;54.228;37.632;2023-03-31T06:31:14;98224.97;;;0.86;nan
72975;BME280;61166;54.228;37.632;2023-03-31T06:33:41;98218.88;;;0.79;nan
72975;BME280;61166;54.228;37.632;2023-03-31T06:36:09;98227.72;;;0.85;nan
72975;BME280;61166;54.228;37.632;2023-03-31T06:38:37;98229.81;;;0.89;nan
72975;BME280;61166;54.228;37.632;2023-03-31T06:41:08;98226.88;;;0.92;nan
72975;BME280;61166;54.228;37.632;2023-03-31T06:43:36;98227.22;;;0.89;nan
72975;BME280;61166;54.228;37.632;2023-03-31T06:46:03;98230.25;;;0.93;nan
72975;BME280;61166;54.228;37.632;2023-03-31T06:48:30;98227.50;;;0.94;nan
72975;BME280;61166;54.228;37.632;2023-03-31T06:51:01;98212.31;;;0.91;nan
72975;BME280;61166;54.228;37.632;2023-03-31T06:53:28;98211.78;;;0.96;nan
72975;BME280;61166;54.228;37.632;2023-03-31T06:55:55;98208.72;;;1.15;nan
72975;BME280;61166;54.228;37.632;2023-03-31T06:58:21;98195.88;;;1.37;nan
72975;BME280;61166;54.228;37.632;2023-03-31T07:00:48;98184.09;;;1.34;nan
72975;BME280;61166;54.228;37.632;2023-03-31T07:03:15;98196.50;;;1.24;nan
72975;BME280;61166;54.228;37.632;2023-03-31T07:05:41;98207.53;;;1.18;nan
72975;BME280;61166;54.228;37.632;2023-03-31T07:08:08;98214.34;;;1.19;nan
72975;BME280;61166;54.228;37.632;2023-03-31T07:10:34;98203.97;;;1.19;nan
72975;BME280;61166;54.228;37.632;2023-03-31T07:13:01;98199.72;;;1.26;nan
72975;BME280;61166;54.228;37.632;2023-03-31T07:15:31;98192.28;;;1.08;nan
72975;BME280;61166;54.228;37.632;2023-03-31T07:17:57;98201.56;;;1.03;nan
72975;BME280;61166;54.228;37.632;2023-03-31T07:20:24;98201.84;;;1.08;nan
72975;BME280;61166;54.228;37.632;2023-03-31T07:22:50;98197.28;;;1.10;nan
72975;BME280;61166;54.228;37.632;2023-03-31T07:25:17;98201.38;;;1.04;nan
72975;BME280;61166;54.228;37.632;2023-03-31T07:27:43;98210.22;;;1.10;nan
72975;BME280;61166;54.228;37.632;2023-03-31T07:30:14;98199.88;;;1.10;nan
72975;BME280;61166;54.228;37.632;2023-03-31T07:32:41;98209.59;;;1.22;nan
72975;BME280;61166;54.228;37.632;2023-03-31T07:35:10;98206.41;;;1.20;nan
72975;BME280;61166;54.228;37.632;2023-03-31T07:37:37;98199.06;;;1.24;nan
72975;BME280;61166;54.228;37.632;2023-03-31T07:40:05;98204.53;;;1.29;nan
72975;BME280;61166;54.228;37.632;2023-03-31T07:42:33;98179.63;;;1.28;nan
72975;BME280;61166;54.228;37.632;2023-03-31T07:45:01;98193.47;;;1.35;nan
72975;BME280;61166;54.228;37.632;2023-03-31T07:47:27;98184.56;;;1.52;nan
72975;BME280;61166;54.228;37.632;2023-03-31T07:49:54;98191.34;;;1.53;nan
72975;BME280;61166;54.228;37.632;2023-03-31T07:52:21;98203.31;;;1.54;nan
72975;BME280;61166;54.228;37.632;2023-03-31T07:54:47;98181.63;;;1.55;nan
72975;BME280;61166;54.228;37.632;2023-03-31T07:57:14;98168.13;;;1.45;nan
72975;BME280;61166;54.228;37.632;2023-03-31T07:59:42;98183.50;;;1.61;nan
72975;BME280;61166;54.228;37.632;2023-03-31T08:02:13;98169.03;;;1.67;nan
72975;BME280;61166;54.228;37.632;2023-03-31T08:04:41;98172.94;;;1.63;nan
72975;BME280;61166;54.228;37.632;2023-03-31T08:07:08;98174.66;;;1.56;nan
72975;BME280;61166;54.228;37.632;2023-03-31T08:09:35;98173.31;;;1.60;nan
72975;BME280;61166;54.228;37.632;2023-03-31T08:12:01;98185.91;;;1.63;nan
72975;BME280;61166;54.228;37.632;2023-03-31T08:14:28;98163.47;;;1.55;nan
72975;BME280;61166;54.228;37.632;2023-03-31T08:17:09;98176.34;;;1.63;nan
72975;BME280;61166;54.228;37.632;2023-03-31T08:19:36;98170.72;;;1.60;nan
72975;BME280;61166;54.228;37.632;2023-03-31T08:22:02;98160.78;;;1.63;nan
72975;BME280;61166;54.228;37.632;2023-03-31T08:24:29;98152.66;;;1.67;nan
72975;BME280;61166;54.228;37.632;2023-03-31T08:26:55;98156.13;;;1.74;nan
72975;BME280;61166;54.228;37.632;2023-03-31T08:29:22;98151.06;;;1.65;nan
72975;BME280;61166;54.228;37.632;2023-03-31T08:31:49;98142.13;;;1.68;nan
72975;BME280;61166;54.228;37.632;2023-03-31T08:34:15;98160.53;;;1.73;nan
72975;BME280;61166;54.228;37.632;2023-03-31T08:36:42;98150.88;;;1.67;nan
72975;BME280;61166;54.228;37.632;2023-03-31T08:39:08;98147.34;;;1.75;nan
72975;BME280;61166;54.228;37.632;2023-03-31T08:44:15;98140.06;;;1.63;nan
72975;BME280;61166;54.228;37.632;2023-03-31T08:46:44;98139.09;;;1.64;nan
72975;BME280;61166;54.228;37.632;2023-03-31T08:49:17;98133.91;;;1.64;nan
72975;BME280;61166;54.228;37.632;2023-03-31T08:52:00;98132.66;;;1.60;nan
72975;BME280;61166;54.228;37.632;2023-03-31T08:54:38;98135.88;;;1.62;nan
72975;BME280;61166;54.228;37.632;2023-03-31T08:57:13;98131.13;;;1.66;nan
72975;BME280;61166;54.228;37.632;2023-03-31T08:59:41;98132.19;;;1.72;nan
72975;BME280;61166;54.228;37.632;2023-03-31T09:02:42;98132.38;;;1.70;nan
72975;BME280;61166;54.228;37.632;2023-03-31T09:16:44;98124.78;;;1.69;nan
72975;BME280;61166;54.228;37.632;2023-03-31T09:19:18;98123.66;;;1.78;nan
72975;BME280;61166;54.228;37.632;2023-03-31T09:21:49;98134.66;;;1.80;nan
72975;BME280;61166;54.228;37.632;2023-03-31T09:24:21;98116.19;;;1.68;nan
72975;BME280;61166;54.228;37.632;2023-03-31T09:26:55;98123.44;;;1.73;nan
72975;BME280;61166;54.228;37.632;2023-03-31T09:29:40;98127.31;;;1.83;nan
72975;BME280;61166;54.228;37.632;2023-03-31T09:32:30;98130.81;;;1.76;nan
72975;BME280;61166;54.228;37.632;2023-03-31T09:35:26;98124.03;;;1.75;nan
72975;BME280;61166;54.228;37.632;2023-03-31T09:37:53;98139.94;;;1.86;nan
72975;BME280;61166;54.228;37.632;2023-03-31T09:40:22;98136.00;;;1.90;nan
72975;BME280;61166;54.228;37.632;2023-03-31T09:43:02;98143.16;;;1.88;nan
72975;BME280;61166;54.228;37.632;2023-03-31T09:45:30;98128.75;;;1.86;nan
72975;BME280;61166;54.228;37.632;2023-03-31T09:48:00;98129.72;;;1.99;nan
72975;BME280;61166;54.228;37.632;2023-03-31T09:50:29;98138.19;;;2.08;nan
72975;BME280;61166;54.228;37.632;2023-03-31T09:52:57;98136.50;;;2.01;nan
72975;BME280;61166;54.228;37.632;2023-03-31T09:55:31;98129.00;;;2.06;nan
72975;BME280;61166;54.228;37.632;2023-03-31T09:58:07;98139.91;;;2.01;nan
72975;BME280;61166;54.228;37.632;2023-03-31T10:00:40;98141.78;;;2.07;nan
72975;BME280;61166;54.228;37.632;2023-03-31T10:03:11;98137.72;;;2.19;nan
72975;BME280;61166;54.228;37.632;2023-03-31T10:05:48;98121.03;;;2.07;nan
72975;BME280;61166;54.228;37.632;2023-03-31T10:10:57;98120.03;;;2.08;nan
72975;BME280;61166;54.228;37.632;2023-03-31T10:16:42;98127.81;;;2.08;nan
72975;BME280;61166;54.228;37.632;2023-03-31T10:21:38;98128.84;;;2.28;nan
72975;BME280;61166;54.228;37.632;2023-03-31T10:24:08;98119.66;;;2.32;nan
72975;BME280;61166;54.228;37.632;2023-03-31T10:26:35;98120.00;;;2.44;nan
72975;BME280;61166;54.228;37.632;2023-03-31T10:29:09;98116.50;;;2.30;nan
72975;BME280;61166;54.228;37.632;2023-03-31T10:31:37;98120.28;;;2.13;nan
72975;BME280;61166;54.228;37.632;2023-03-31T10:34:11;98134.69;;;2.16;nan
72975;BME280;61166;54.228;37.632;2023-03-31T10:36:47;98128.50;;;2.17;nan
72975;BME280;61166;54.228;37.632;2023-03-31T10:39:17;98131.81;;;2.25;nan
72975;BME280;61166;54.228;37.632;2023-03-31T10:41:51;98130.44;;;2.29;nan
72975;BME280;61166;54.228;37.632;2023-03-31T10:44:33;98125.00;;;2.24;nan
72975;BME280;61166;54.228;37.632;2023-03-31T10:47:05;98126.66;;;2.32;nan
72975;BME280;61166;54.228;37.632;2023-03-31T10:49:42;98116.16;;;2.40;nan
72975;BME280;61166;54.228;37.632;2023-03-31T10:52:22;98122.78;;;2.43;nan
72975;BME280;61166;54.228;37.632;2023-03-31T10:54:55;98118.13;;;2.38;nan
72975;BME280;61166;54.228;37.632;2023-03-31T11:00:49;98113.28;;;2.28;nan
72975;BME280;61166;54.228;37.632;2023-03-31T11:03:36;98107.56;;;2.40;nan
72975;BME280;61166;54.228;37.632;2023-03-31T11:06:37;98106.94;;;2.38;nan
72975;BME280;61166;54.228;37.632;2023-03-31T11:09:28;98102.13;;;2.35;nan
72975;BME280;61166;54.228;37.632;2023-03-31T11:12:25;98108.19;;;2.20;nan
72975;BME280;61166;54.228;37.632;2023-03-31T11:21:05;98109.09;;;2.34;nan
72975;BME280;61166;54.228;37.632;2023-03-31T11:32:20;98079.34;;;2.51;nan
72975;BME280;61166;54.228;37.632;2023-03-31T11:37:55;98053.03;;;2.82;nan
72975;BME280;61166;54.228;37.632;2023-03-31T11:40:51;98052.66;;;2.92;nan
72975;BME280;61166;54.228;37.632;2023-03-31T11:43:33;98050.66;;;2.87;nan
72975;BME280;61166;54.228;37.632;2023-03-31T11:46:18;98048.47;;;2.91;nan
72975;BME280;61166;54.228;37.632;2023-03-31T11:49:05;98045.25;;;2.89;nan
72975;BME280;61166;54.228;37.632;2023-03-31T11:51:47;98039.88;;;2.90;nan
72975;BME280;61166;54.228;37.632;2023-03-31T11:54:22;98041.91;;;2.95;nan
72975;BME280;61166;54.228;37.632;2023-03-31T11:56:51;98042.28;;;2.92;nan
72975;BME280;61166;54.228;37.632;2023-03-31T11:59:19;98043.06;;;2.92;nan
72975;BME280;61166;54.228;37.632;2023-03-31T12:01:56;98042.69;;;2.95;nan
72975;BME280;61166;54.228;37.632;2023-03-31T12:04:37;98029.75;;;2.68;nan
72975;BME280;61166;54.228;37.632;2023-03-31T12:07:32;98038.38;;;2.75;nan
72975;BME280;61166;54.228;37.632;2023-03-31T12:13:30;98035.00;;;2.74;nan
72975;BME280;61166;54.228;37.632;2023-03-31T12:18:48;98039.47;;;2.59;nan
72975;BME280;61166;54.228;37.632;2023-03-31T12:21:22;98045.41;;;2.53;nan
72975;BME280;61166;54.228;37.632;2023-03-31T12:23:51;98039.09;;;2.62;nan
72975;BME280;61166;54.228;37.632;2023-03-31T12:26:46;98040.47;;;2.86;nan
72975;BME280;61166;54.228;37.632;2023-03-31T12:29:21;98036.69;;;2.60;nan
72975;BME280;61166;54.228;37.632;2023-03-31T12:31:54;98029.50;;;2.62;nan
72975;BME280;61166;54.228;37.632;2023-03-31T12:34:23;98026.78;;;2.71;nan
72975;BME280;61166;54.228;37.632;2023-03-31T12:36:59;98027.53;;;2.64;nan
72975;BME280;61166;54.228;37.632;2023-03-31T12:45:17;98031.22;;;2.77;nan
72975;BME280;61166;54.228;37.632;2023-03-31T12:56:11;98030.88;;;2.86;nan
72975;BME280;61166;54.228;37.632;2023-03-31T12:58:41;98035.66;;;2.89;nan
72975;BME280;61166;54.228;37.632;2023-03-31T13:01:11;98023.38;;;2.70;nan
72975;BME280;61166;54.228;37.632;2023-03-31T13:09:06;98019.03;;;2.77;nan
72975;BME280;61166;54.228;37.632;2023-03-31T13:11:50;98017.44;;;2.76;nan
72975;BME280;61166;54.228;37.632;2023-03-31T13:14:22;98031.44;;;2.82;nan
72975;BME280;61166;54.228;37.632;2023-03-31T13:16:51;98027.44;;;2.79;nan
72975;BME280;61166;54.228;37.632;2023-03-31T13:19:40;98022.63;;;2.76;nan
72975;BME280;61166;54.228;37.632;2023-03-31T13:22:27;98024.50;;;2.61;nan
72975;BME280;61166;54.228;37.632;2023-03-31T13:27:57;98028.56;;;2.70;nan
72975;BME280;61166;54.228;37.632;2023-03-31T13:35:39;98032.78;;;2.71;nan
72975;BME280;61166;54.228;37.632;2023-03-31T13:38:29;98026.22;;;2.75;nan
72975;BME280;61166;54.228;37.632;2023-03-31T13:50:11;98028.53;;;2.63;nan
72975;BME280;61166;54.228;37.632;2023-03-31T13:55:43;98034.69;;;2.35;nan
72975;BME280;61166;54.228;37.632;2023-03-31T13:58:23;98031.09;;;2.36;nan
72975;BME280;61166;54.228;37.632;2023-03-31T14:07:11;98021.38;;;2.16;nan
72975;BME280;61166;54.228;37.632;2023-03-31T14:09:43;98028.22;;;2.24;nan
72975;BME280;61166;54.228;37.632;2023-03-31T14:12:36;98027.78;;;2.20;nan
72975;BME280;61166;54.228;37.632;2023-03-31T14:17:43;98026.56;;;2.16;nan
72975;BME280;61166;54.228;37.632;2023-03-31T14:20:41;98029.69;;;2.12;nan
72975;BME280;61166;54.228;37.632;2023-03-31T14:26:20;98022.22;;;2.23;nan
72975;BME280;61166;54.228;37.632;2023-03-31T14:32:13;98023.84;;;2.24;nan
72975;BME280;61166;54.228;37.632;2023-03-31T14:37:36;98028.28;;;2.30;nan
72975;BME280;61166;54.228;37.632;2023-03-31T14:40:04;98031.00;;;2.22;nan
72975;BME280;61166;54.228;37.632;2023-03-31T14:42:37;98027.84;;;2.27;nan
72975;BME280;61166;54.228;37.632;2023-03-31T14:45:24;98027.72;;;2.14;nan
72975;BME280;61166;54.228;37.632;2023-03-31T14:48:12;98022.84;;;2.04;nan
72975;BME280;61166;54.228;37.632;2023-03-31T14:50:44;98017.09;;;2.09;nan
72975;BME280;61166;54.228;37.632;2023-03-31T14:53:16;98019.63;;;2.02;nan
72975;BME280;61166;54.228;37.632;2023-03-31T14:55:44;98012.09;;;2.07;nan
72975;BME280;61166;54.228;37.632;2023-03-31T14:58:31;98010.63;;;2.19;nan
72975;BME280;61166;54.228;37.632;2023-03-31T15:00:58;98007.41;;;2.17;nan
72975;BME280;61166;54.228;37.632;2023-03-31T15:03:25;98009.88;;;2.25;nan
72975;BME280;61166;54.228;37.632;2023-03-31T15:05:56;98005.88;;;2.23;nan
72975;BME280;61166;54.228;37.632;2023-03-31T15:08:24;98011.06;;;2.23;nan
72975;BME280;61166;54.228;37.632;2023-03-31T15:10:54;98004.56;;;2.12;nan
72975;BME280;61166;54.228;37.632;2023-03-31T15:13:46;97997.22;;;2.16;nan
72975;BME280;61166;54.228;37.632;2023-03-31T15:16:39;98003.59;;;2.13;nan
72975;BME280;61166;54.228;37.632;2023-03-31T15:19:18;98029.41;;;2.21;nan
72975;BME280;61166;54.228;37.632;2023-03-31T15:21:46;98000.31;;;2.26;nan
72975;BME280;61166;54.228;37.632;2023-03-31T15:24:19;97999.16;;;2.35;nan
72975;BME280;61166;54.228;37.632;2023-03-31T15:29:34;98004.53;;;2.33;nan
72975;BME280;61166;54.228;37.632;2023-03-31T15:32:07;98007.53;;;2.30;nan
72975;BME280;61166;54.228;37.632;2023-03-31T15:34:37;98009.09;;;2.31;nan
72975;BME280;61166;54.228;37.632;2023-03-31T15:37:06;98010.34;;;2.36;nan
72975;BME280;61166;54.228;37.632;2023-03-31T15:39:34;98011.19;;;2.43;nan
72975;BME280;61166;54.228;37.632;2023-03-31T15:42:04;98014.41;;;2.45;nan
72975;BME280;61166;54.228;37.632;2023-03-31T15:44:46;98011.25;;;2.49;nan
72975;BME280;61166;54.228;37.632;2023-03-31T15:47:20;98008.09;;;2.54;nan
72975;BME280;61166;54.228;37.632;2023-03-31T15:49:54;98013.09;;;2.55;nan
72975;BME280;61166;54.228;37.632;2023-03-31T15:52:33;98014.16;;;2.40;nan
72975;BME280;61166;54.228;37.632;2023-03-31T15:55:16;98008.47;;;2.51;nan
72975;BME280;61166;54.228;37.632;2023-03-31T15:57:49;98017.03;;;2.51;nan
72975;BME280;61166;54.228;37.632;2023-03-31T16:03:19;98019.31;;;2.61;nan
72975;BME280;61166;54.228;37.632;2023-03-31T16:05:57;98017.34;;;2.63;nan
72975;BME280;61166;54.228;37.632;2023-03-31T16:11:12;98018.56;;;2.67;nan
72975;BME280;61166;54.228;37.632;2023-03-31T16:13:45;98017.56;;;2.68;nan
72975;BME280;61166;54.228;37.632;2023-03-31T16:16:16;98013.00;;;2.70;nan
72975;BME280;61166;54.228;37.632;2023-03-31T16:19:00;98017.00;;;2.73;nan
72975;BME280;61166;54.228;37.632;2023-03-31T16:21:36;98015.59;;;2.70;nan
72975;BME280;61166;54.228;37.632;2023-03-31T16:24:04;98013.41;;;2.74;nan